sensor_id;sensor_type;location;lat;lon;timestamp;P1;durP1;ratioP1;P2;durP2;ratioP2
75450;SDS011;64029;48.244;9.188;2023-04-15T00:00:51;3.83;;;2.43;;
75450;SDS011;64029;48.244;9.188;2023-04-15T00:03:20;2.47;;;1.60;;
75450;SDS011;64029;48.244;9.188;2023-04-15T00:05:47;4.33;;;2.47;;
75450;SDS011;64029;48.244;9.188;2023-04-15T00:08:14;3.83;;;1.90;;
75450;SDS011;64029;48.244;9.188;2023-04-15T00:10:41;2.73;;;1.80;;
75450;SDS011;64029;48.244;9.188;2023-04-15T00:13:08;3.20;;;2.30;;
75450;SDS011;64029;48.244;9.188;2023-04-15T00:15:35;5.63;;;1.90;;
75450;SDS011;64029;48.244;9.188;2023-04-15T00:18:02;3.70;;;2.20;;
75450;SDS011;64029;48.244;9.188;2023-04-15T00:20:30;4.20;;;2.07;;
75450;SDS011;64029;48.244;9.188;2023-04-15T00:22:57;2.73;;;1.93;;
75450;SDS011;64029;48.244;9.188;2023-04-15T00:25:24;4.73;;;2.10;;
75450;SDS011;64029;48.244;9.188;2023-04-15T00:27:51;4.17;;;2.03;;
75450;SDS011;64029;48.244;9.188;2023-04-15T00:30:18;4.80;;;1.80;;
75450;SDS011;64029;48.244;9.188;2023-04-15T00:32:45;2.37;;;1.93;;
75450;SDS011;64029;48.244;9.188;2023-04-15T00:35:13;3.73;;;1.60;;
75450;SDS011;64029;48.244;9.188;2023-04-15T00:37:41;4.10;;;1.70;;
75450;SDS011;64029;48.244;9.188;2023-04-15T00:40:09;4.33;;;2.63;;
75450;SDS011;64029;48.244;9.188;2023-04-15T00:42:38;7.30;;;2.03;;
75450;SDS011;64029;48.244;9.188;2023-04-15T00:45:05;7.90;;;2.93;;
75450;SDS011;64029;48.244;9.188;2023-04-15T00:47:32;5.70;;;2.40;;
75450;SDS011;64029;48.244;9.188;2023-04-15T00:50:01;6.10;;;2.60;;
75450;SDS011;64029;48.244;9.188;2023-04-15T00:52:29;6.50;;;2.47;;
75450;SDS011;64029;48.244;9.188;2023-04-15T00:54:57;2.47;;;1.80;;
75450;SDS011;64029;48.244;9.188;2023-04-15T00:57:24;4.10;;;2.03;;
75450;SDS011;64029;48.244;9.188;2023-04-15T00:59:53;1.77;;;1.60;;
75450;SDS011;64029;48.244;9.188;2023-04-15T01:02:21;2.40;;;1.60;;
75450;SDS011;64029;48.244;9.188;2023-04-15T01:04:48;3.93;;;2.10;;
75450;SDS011;64029;48.244;9.188;2023-04-15T01:07:16;4.00;;;2.03;;
75450;SDS011;64029;48.244;9.188;2023-04-15T01:09:42;8.70;;;2.20;;
75450;SDS011;64029;48.244;9.188;2023-04-15T01:12:11;2.27;;;2.03;;
75450;SDS011;64029;48.244;9.188;2023-04-15T01:14:40;2.00;;;1.80;;
75450;SDS011;64029;48.244;9.188;2023-04-15T01:17:07;3.50;;;1.90;;
75450;SDS011;64029;48.244;9.188;2023-04-15T01:19:35;4.23;;;2.00;;
75450;SDS011;64029;48.244;9.188;2023-04-15T01:22:02;3.40;;;2.43;;
75450;SDS011;64029;48.244;9.188;2023-04-15T01:24:29;4.37;;;2.43;;
75450;SDS011;64029;48.244;9.188;2023-04-15T01:26:59;5.40;;;2.17;;
75450;SDS011;64029;48.244;9.188;2023-04-15T01:29:26;4.93;;;2.57;;
75450;SDS011;64029;48.244;9.188;2023-04-15T01:31:53;3.83;;;1.90;;
75450;SDS011;64029;48.244;9.188;2023-04-15T01:34:21;4.17;;;2.10;;
75450;SDS011;64029;48.244;9.188;2023-04-15T01:36:48;3.83;;;2.33;;
75450;SDS011;64029;48.244;9.188;2023-04-15T01:39:15;5.80;;;2.37;;
75450;SDS011;64029;48.244;9.188;2023-04-15T01:41:43;3.97;;;2.20;;
75450;SDS011;64029;48.244;9.188;2023-04-15T01:44:11;4.43;;;2.93;;
75450;SDS011;64029;48.244;9.188;2023-04-15T01:46:38;5.53;;;2.20;;
75450;SDS011;64029;48.244;9.188;2023-04-15T01:49:05;3.80;;;2.50;;
75450;SDS011;64029;48.244;9.188;2023-04-15T01:51:31;4.13;;;1.80;;
75450;SDS011;64029;48.244;9.188;2023-04-15T01:53:58;3.67;;;1.77;;
75450;SDS011;64029;48.244;9.188;2023-04-15T01:56:25;3.97;;;1.67;;
75450;SDS011;64029;48.244;9.188;2023-04-15T01:58:52;2.97;;;1.90;;
75450;SDS011;64029;48.244;9.188;2023-04-15T02:01:20;6.00;;;1.90;;
75450;SDS011;64029;48.244;9.188;2023-04-15T02:03:47;3.63;;;2.30;;
75450;SDS011;64029;48.244;9.188;2023-04-15T02:06:14;5.23;;;4.23;;
75450;SDS011;64029;48.244;9.188;2023-04-15T02:08:41;4.90;;;2.27;;
75450;SDS011;64029;48.244;9.188;2023-04-15T02:11:08;6.03;;;2.40;;
75450;SDS011;64029;48.244;9.188;2023-04-15T02:13:35;3.20;;;2.10;;
75450;SDS011;64029;48.244;9.188;2023-04-15T02:16:01;3.40;;;2.33;;
75450;SDS011;64029;48.244;9.188;2023-04-15T02:18:30;2.70;;;1.70;;
75450;SDS011;64029;48.244;9.188;2023-04-15T02:20:57;3.10;;;1.93;;
75450;SDS011;64029;48.244;9.188;2023-04-15T02:23:24;3.43;;;2.03;;
75450;SDS011;64029;48.244;9.188;2023-04-15T02:25:51;3.17;;;1.93;;
75450;SDS011;64029;48.244;9.188;2023-04-15T02:28:17;6.00;;;2.60;;
75450;SDS011;64029;48.244;9.188;2023-04-15T02:30:46;6.00;;;2.40;;
75450;SDS011;64029;48.244;9.188;2023-04-15T02:33:14;6.73;;;1.90;;
75450;SDS011;64029;48.244;9.188;2023-04-15T02:35:42;3.53;;;1.80;;
75450;SDS011;64029;48.244;9.188;2023-04-15T02:38:09;2.67;;;1.80;;
75450;SDS011;64029;48.244;9.188;2023-04-15T02:40:36;2.60;;;1.97;;
75450;SDS011;64029;48.244;9.188;2023-04-15T02:43:03;2.40;;;1.77;;
75450;SDS011;64029;48.244;9.188;2023-04-15T02:45:31;4.50;;;2.57;;
75450;SDS011;64029;48.244;9.188;2023-04-15T02:47:57;2.80;;;1.50;;
75450;SDS011;64029;48.244;9.188;2023-04-15T02:50:27;2.73;;;1.83;;
75450;SDS011;64029;48.244;9.188;2023-04-15T02:52:57;4.07;;;1.87;;
75450;SDS011;64029;48.244;9.188;2023-04-15T02:55:25;2.70;;;1.90;;
75450;SDS011;64029;48.244;9.188;2023-04-15T02:57:52;5.43;;;2.33;;
75450;SDS011;64029;48.244;9.188;2023-04-15T03:00:18;5.10;;;1.70;;
75450;SDS011;64029;48.244;9.188;2023-04-15T03:02:45;2.23;;;2.00;;
75450;SDS011;64029;48.244;9.188;2023-04-15T03:05:16;3.77;;;2.10;;
75450;SDS011;64029;48.244;9.188;2023-04-15T03:07:42;9.53;;;3.40;;
75450;SDS011;64029;48.244;9.188;2023-04-15T03:10:11;3.70;;;2.50;;
75450;SDS011;64029;48.244;9.188;2023-04-15T03:12:38;4.23;;;2.10;;
75450;SDS011;64029;48.244;9.188;2023-04-15T03:15:05;4.27;;;1.90;;
75450;SDS011;64029;48.244;9.188;2023-04-15T03:17:33;2.33;;;1.57;;
75450;SDS011;64029;48.244;9.188;2023-04-15T03:20:00;2.07;;;1.80;;
75450;SDS011;64029;48.244;9.188;2023-04-15T03:22:27;5.60;;;1.87;;
75450;SDS011;64029;48.244;9.188;2023-04-15T03:24:54;4.43;;;1.90;;
75450;SDS011;64029;48.244;9.188;2023-04-15T03:27:22;5.73;;;2.53;;
75450;SDS011;64029;48.244;9.188;2023-04-15T03:29:49;5.20;;;1.90;;
75450;SDS011;64029;48.244;9.188;2023-04-15T03:32:16;5.40;;;1.70;;
75450;SDS011;64029;48.244;9.188;2023-04-15T03:34:43;5.00;;;2.23;;
75450;SDS011;64029;48.244;9.188;2023-04-15T03:37:10;2.57;;;2.00;;
75450;SDS011;64029;48.244;9.188;2023-04-15T03:39:37;3.80;;;1.97;;
75450;SDS011;64029;48.244;9.188;2023-04-15T03:42:04;3.63;;;2.03;;
75450;SDS011;64029;48.244;9.188;2023-04-15T03:44:32;3.20;;;2.00;;
75450;SDS011;64029;48.244;9.188;2023-04-15T03:46:59;9.13;;;2.90;;
75450;SDS011;64029;48.244;9.188;2023-04-15T03:49:25;6.17;;;2.17;;
75450;SDS011;64029;48.244;9.188;2023-04-15T03:51:52;2.27;;;1.60;;
75450;SDS011;64029;48.244;9.188;2023-04-15T03:54:19;2.43;;;1.80;;
75450;SDS011;64029;48.244;9.188;2023-04-15T03:56:46;4.93;;;2.40;;
75450;SDS011;64029;48.244;9.188;2023-04-15T03:59:13;3.77;;;1.77;;
75450;SDS011;64029;48.244;9.188;2023-04-15T04:01:41;2.83;;;2.20;;
75450;SDS011;64029;48.244;9.188;2023-04-15T04:04:08;4.63;;;1.90;;
75450;SDS011;64029;48.244;9.188;2023-04-15T04:06:35;3.70;;;2.63;;
75450;SDS011;64029;48.244;9.188;2023-04-15T04:09:02;4.17;;;2.57;;
75450;SDS011;64029;48.244;9.188;2023-04-15T04:11:29;4.70;;;1.83;;
75450;SDS011;64029;48.244;9.188;2023-04-15T04:13:57;2.53;;;2.33;;
75450;SDS011;64029;48.244;9.188;2023-04-15T04:16:23;3.33;;;2.07;;
75450;SDS011;64029;48.244;9.188;2023-04-15T04:18:52;3.43;;;2.23;;
75450;SDS011;64029;48.244;9.188;2023-04-15T04:21:18;3.97;;;2.37;;
75450;SDS011;64029;48.244;9.188;2023-04-15T04:23:45;2.57;;;2.07;;
75450;SDS011;64029;48.244;9.188;2023-04-15T04:26:12;4.43;;;2.47;;
75450;SDS011;64029;48.244;9.188;2023-04-15T04:28:39;2.93;;;2.00;;
75450;SDS011;64029;48.244;9.188;2023-04-15T04:31:06;2.63;;;2.13;;
75450;SDS011;64029;48.244;9.188;2023-04-15T04:33:33;5.37;;;2.13;;
75450;SDS011;64029;48.244;9.188;2023-04-15T04:36:01;2.27;;;2.03;;
75450;SDS011;64029;48.244;9.188;2023-04-15T04:38:28;3.10;;;2.17;;
75450;SDS011;64029;48.244;9.188;2023-04-15T04:40:55;3.40;;;1.80;;
75450;SDS011;64029;48.244;9.188;2023-04-15T04:43:21;5.93;;;2.47;;
75450;SDS011;64029;48.244;9.188;2023-04-15T04:45:48;4.37;;;2.97;;
75450;SDS011;64029;48.244;9.188;2023-04-15T04:48:15;3.20;;;2.27;;
75450;SDS011;64029;48.244;9.188;2023-04-15T04:50:43;4.40;;;2.30;;
75450;SDS011;64029;48.244;9.188;2023-04-15T04:53:12;6.30;;;2.37;;
75450;SDS011;64029;48.244;9.188;2023-04-15T04:55:40;2.40;;;2.10;;
75450;SDS011;64029;48.244;9.188;2023-04-15T04:58:06;6.17;;;2.60;;
75450;SDS011;64029;48.244;9.188;2023-04-15T05:00:33;5.40;;;2.60;;
75450;SDS011;64029;48.244;9.188;2023-04-15T05:03:01;5.63;;;2.87;;
75450;SDS011;64029;48.244;9.188;2023-04-15T05:05:28;6.37;;;2.77;;
75450;SDS011;64029;48.244;9.188;2023-04-15T05:07:55;4.77;;;2.60;;
75450;SDS011;64029;48.244;9.188;2023-04-15T05:10:23;4.93;;;3.20;;
75450;SDS011;64029;48.244;9.188;2023-04-15T05:12:50;9.23;;;4.30;;
75450;SDS011;64029;48.244;9.188;2023-04-15T05:15:17;7.63;;;4.57;;
75450;SDS011;64029;48.244;9.188;2023-04-15T05:17:44;4.80;;;4.00;;
75450;SDS011;64029;48.244;9.188;2023-04-15T05:20:11;5.57;;;2.47;;
75450;SDS011;64029;48.244;9.188;2023-04-15T05:22:38;5.07;;;2.57;;
75450;SDS011;64029;48.244;9.188;2023-04-15T05:25:05;5.93;;;2.67;;
75450;SDS011;64029;48.244;9.188;2023-04-15T05:27:34;5.90;;;2.60;;
75450;SDS011;64029;48.244;9.188;2023-04-15T05:30:01;5.23;;;3.10;;
75450;SDS011;64029;48.244;9.188;2023-04-15T05:32:29;5.47;;;3.10;;
75450;SDS011;64029;48.244;9.188;2023-04-15T05:34:56;4.83;;;3.10;;
75450;SDS011;64029;48.244;9.188;2023-04-15T05:37:23;9.27;;;4.00;;
75450;SDS011;64029;48.244;9.188;2023-04-15T05:39:50;5.97;;;3.80;;
75450;SDS011;64029;48.244;9.188;2023-04-15T05:42:17;6.27;;;4.43;;
75450;SDS011;64029;48.244;9.188;2023-04-15T05:44:45;9.70;;;5.93;;
75450;SDS011;64029;48.244;9.188;2023-04-15T05:47:12;7.53;;;4.93;;
75450;SDS011;64029;48.244;9.188;2023-04-15T05:49:38;11.67;;;6.50;;
75450;SDS011;64029;48.244;9.188;2023-04-15T05:52:05;17.60;;;9.60;;
75450;SDS011;64029;48.244;9.188;2023-04-15T05:54:32;12.83;;;8.40;;
75450;SDS011;64029;48.244;9.188;2023-04-15T05:56:59;11.13;;;6.23;;
75450;SDS011;64029;48.244;9.188;2023-04-15T05:59:26;9.23;;;4.80;;
75450;SDS011;64029;48.244;9.188;2023-04-15T06:01:54;13.90;;;6.07;;
75450;SDS011;64029;48.244;9.188;2023-04-15T06:04:22;7.47;;;4.60;;
75450;SDS011;64029;48.244;9.188;2023-04-15T06:06:48;8.63;;;5.00;;
75450;SDS011;64029;48.244;9.188;2023-04-15T06:09:15;11.70;;;6.20;;
75450;SDS011;64029;48.244;9.188;2023-04-15T06:11:42;9.63;;;7.20;;
75450;SDS011;64029;48.244;9.188;2023-04-15T06:14:09;10.47;;;8.10;;
75450;SDS011;64029;48.244;9.188;2023-04-15T06:16:36;12.57;;;7.80;;
75450;SDS011;64029;48.244;9.188;2023-04-15T06:19:04;11.00;;;7.10;;
75450;SDS011;64029;48.244;9.188;2023-04-15T06:21:31;12.30;;;7.20;;
75450;SDS011;64029;48.244;9.188;2023-04-15T06:23:58;8.00;;;6.20;;
75450;SDS011;64029;48.244;9.188;2023-04-15T06:26:26;11.07;;;6.60;;
75450;SDS011;64029;48.244;9.188;2023-04-15T06:28:53;8.33;;;6.83;;
75450;SDS011;64029;48.244;9.188;2023-04-15T06:31:20;10.87;;;7.13;;
75450;SDS011;64029;48.244;9.188;2023-04-15T06:33:46;10.33;;;7.30;;
75450;SDS011;64029;48.244;9.188;2023-04-15T06:36:15;13.63;;;7.90;;
75450;SDS011;64029;48.244;9.188;2023-04-15T06:38:41;7.73;;;5.67;;
75450;SDS011;64029;48.244;9.188;2023-04-15T06:41:08;7.30;;;5.30;;
75450;SDS011;64029;48.244;9.188;2023-04-15T06:43:35;9.80;;;5.30;;
75450;SDS011;64029;48.244;9.188;2023-04-15T06:46:02;7.70;;;5.47;;
75450;SDS011;64029;48.244;9.188;2023-04-15T06:48:29;7.07;;;4.33;;
75450;SDS011;64029;48.244;9.188;2023-04-15T06:50:56;6.80;;;5.10;;
75450;SDS011;64029;48.244;9.188;2023-04-15T06:53:24;5.67;;;4.33;;
75450;SDS011;64029;48.244;9.188;2023-04-15T06:55:52;10.03;;;5.03;;
75450;SDS011;64029;48.244;9.188;2023-04-15T06:58:18;4.53;;;3.50;;
75450;SDS011;64029;48.244;9.188;2023-04-15T07:00:45;4.13;;;3.47;;
75450;SDS011;64029;48.244;9.188;2023-04-15T07:03:13;8.80;;;3.10;;
75450;SDS011;64029;48.244;9.188;2023-04-15T07:05:40;4.63;;;3.30;;
75450;SDS011;64029;48.244;9.188;2023-04-15T07:08:07;3.40;;;2.57;;
75450;SDS011;64029;48.244;9.188;2023-04-15T07:10:35;4.80;;;3.10;;
75450;SDS011;64029;48.244;9.188;2023-04-15T07:13:02;4.10;;;2.70;;
75450;SDS011;64029;48.244;9.188;2023-04-15T07:15:29;4.23;;;2.63;;
75450;SDS011;64029;48.244;9.188;2023-04-15T07:17:56;3.80;;;2.80;;
75450;SDS011;64029;48.244;9.188;2023-04-15T07:20:23;3.17;;;2.87;;
75450;SDS011;64029;48.244;9.188;2023-04-15T07:22:50;3.67;;;2.37;;
75450;SDS011;64029;48.244;9.188;2023-04-15T07:25:17;6.13;;;3.90;;
75450;SDS011;64029;48.244;9.188;2023-04-15T07:27:45;5.90;;;3.07;;
75450;SDS011;64029;48.244;9.188;2023-04-15T07:30:12;5.10;;;2.93;;
75450;SDS011;64029;48.244;9.188;2023-04-15T07:32:40;3.20;;;2.53;;
75450;SDS011;64029;48.244;9.188;2023-04-15T07:35:07;2.97;;;2.50;;
75450;SDS011;64029;48.244;9.188;2023-04-15T07:37:34;5.80;;;2.70;;
75450;SDS011;64029;48.244;9.188;2023-04-15T07:40:01;5.20;;;3.90;;
75450;SDS011;64029;48.244;9.188;2023-04-15T07:42:31;7.50;;;3.00;;
75450;SDS011;64029;48.244;9.188;2023-04-15T07:44:59;4.67;;;3.27;;
75450;SDS011;64029;48.244;9.188;2023-04-15T07:47:26;5.90;;;3.70;;
75450;SDS011;64029;48.244;9.188;2023-04-15T07:49:53;10.73;;;4.90;;
75450;SDS011;64029;48.244;9.188;2023-04-15T07:52:19;11.23;;;6.30;;
75450;SDS011;64029;48.244;9.188;2023-04-15T07:54:46;8.63;;;5.13;;
75450;SDS011;64029;48.244;9.188;2023-04-15T07:57:13;13.60;;;7.00;;
75450;SDS011;64029;48.244;9.188;2023-04-15T07:59:41;12.50;;;6.37;;
75450;SDS011;64029;48.244;9.188;2023-04-15T08:02:09;10.00;;;5.43;;
75450;SDS011;64029;48.244;9.188;2023-04-15T08:04:36;13.60;;;6.37;;
75450;SDS011;64029;48.244;9.188;2023-04-15T08:07:03;8.80;;;5.60;;
75450;SDS011;64029;48.244;9.188;2023-04-15T08:09:30;7.30;;;4.93;;
75450;SDS011;64029;48.244;9.188;2023-04-15T08:11:57;9.13;;;4.50;;
75450;SDS011;64029;48.244;9.188;2023-04-15T08:14:25;5.67;;;3.53;;
75450;SDS011;64029;48.244;9.188;2023-04-15T08:16:51;7.83;;;4.00;;
75450;SDS011;64029;48.244;9.188;2023-04-15T08:19:20;7.80;;;5.27;;
75450;SDS011;64029;48.244;9.188;2023-04-15T08:21:47;5.20;;;3.33;;
75450;SDS011;64029;48.244;9.188;2023-04-15T08:24:14;5.83;;;2.80;;
75450;SDS011;64029;48.244;9.188;2023-04-15T08:26:41;3.60;;;2.70;;
75450;SDS011;64029;48.244;9.188;2023-04-15T08:29:07;6.13;;;2.73;;
75450;SDS011;64029;48.244;9.188;2023-04-15T08:31:34;4.30;;;2.77;;
75450;SDS011;64029;48.244;9.188;2023-04-15T08:34:01;9.00;;;3.07;;
75450;SDS011;64029;48.244;9.188;2023-04-15T08:36:30;4.53;;;3.40;;
75450;SDS011;64029;48.244;9.188;2023-04-15T08:38:57;5.57;;;4.30;;
75450;SDS011;64029;48.244;9.188;2023-04-15T08:41:25;5.33;;;3.03;;
75450;SDS011;64029;48.244;9.188;2023-04-15T08:43:56;6.10;;;2.60;;
75450;SDS011;64029;48.244;9.188;2023-04-15T08:46:24;6.80;;;2.77;;
75450;SDS011;64029;48.244;9.188;2023-04-15T08:48:51;6.43;;;2.50;;
75450;SDS011;64029;48.244;9.188;2023-04-15T08:51:22;3.67;;;2.07;;
75450;SDS011;64029;48.244;9.188;2023-04-15T08:53:51;4.80;;;2.30;;
75450;SDS011;64029;48.244;9.188;2023-04-15T08:56:18;3.30;;;2.40;;
75450;SDS011;64029;48.244;9.188;2023-04-15T08:58:49;4.93;;;2.30;;
75450;SDS011;64029;48.244;9.188;2023-04-15T09:01:16;9.37;;;2.57;;
75450;SDS011;64029;48.244;9.188;2023-04-15T09:03:44;4.80;;;2.37;;
75450;SDS011;64029;48.244;9.188;2023-04-15T09:06:13;5.10;;;2.20;;
75450;SDS011;64029;48.244;9.188;2023-04-15T09:08:42;5.77;;;2.53;;
75450;SDS011;64029;48.244;9.188;2023-04-15T09:11:10;3.20;;;2.27;;
75450;SDS011;64029;48.244;9.188;2023-04-15T09:13:37;5.40;;;2.20;;
75450;SDS011;64029;48.244;9.188;2023-04-15T09:16:04;5.07;;;2.93;;
75450;SDS011;64029;48.244;9.188;2023-04-15T09:18:32;7.23;;;2.00;;
75450;SDS011;64029;48.244;9.188;2023-04-15T09:21:04;7.37;;;2.90;;
75450;SDS011;64029;48.244;9.188;2023-04-15T09:23:33;4.43;;;2.17;;
75450;SDS011;64029;48.244;9.188;2023-04-15T09:26:00;2.93;;;2.00;;
75450;SDS011;64029;48.244;9.188;2023-04-15T09:28:29;2.97;;;1.93;;
75450;SDS011;64029;48.244;9.188;2023-04-15T09:30:56;4.87;;;2.30;;
75450;SDS011;64029;48.244;9.188;2023-04-15T09:33:23;6.67;;;2.87;;
75450;SDS011;64029;48.244;9.188;2023-04-15T09:35:58;5.40;;;1.90;;
75450;SDS011;64029;48.244;9.188;2023-04-15T09:38:26;4.50;;;1.80;;
75450;SDS011;64029;48.244;9.188;2023-04-15T09:40:53;3.97;;;2.13;;
75450;SDS011;64029;48.244;9.188;2023-04-15T09:43:21;6.83;;;1.70;;
75450;SDS011;64029;48.244;9.188;2023-04-15T09:45:52;6.93;;;1.93;;
75450;SDS011;64029;48.244;9.188;2023-04-15T09:48:20;4.30;;;1.63;;
75450;SDS011;64029;48.244;9.188;2023-04-15T09:50:48;3.40;;;1.90;;
75450;SDS011;64029;48.244;9.188;2023-04-15T09:53:18;3.03;;;1.63;;
75450;SDS011;64029;48.244;9.188;2023-04-15T09:55:48;7.93;;;2.27;;
75450;SDS011;64029;48.244;9.188;2023-04-15T09:58:19;4.13;;;2.40;;
75450;SDS011;64029;48.244;9.188;2023-04-15T10:00:47;9.83;;;4.17;;
75450;SDS011;64029;48.244;9.188;2023-04-15T10:03:18;6.20;;;3.10;;
75450;SDS011;64029;48.244;9.188;2023-04-15T10:05:47;3.60;;;2.33;;
75450;SDS011;64029;48.244;9.188;2023-04-15T10:08:15;7.20;;;2.10;;
75450;SDS011;64029;48.244;9.188;2023-04-15T10:10:44;6.20;;;2.27;;
75450;SDS011;64029;48.244;9.188;2023-04-15T10:13:12;4.60;;;2.10;;
75450;SDS011;64029;48.244;9.188;2023-04-15T10:15:40;2.63;;;1.97;;
75450;SDS011;64029;48.244;9.188;2023-04-15T10:18:10;6.60;;;2.17;;
75450;SDS011;64029;48.244;9.188;2023-04-15T10:20:40;3.80;;;1.90;;
75450;SDS011;64029;48.244;9.188;2023-04-15T10:23:07;4.97;;;2.20;;
75450;SDS011;64029;48.244;9.188;2023-04-15T10:25:35;6.00;;;1.90;;
75450;SDS011;64029;48.244;9.188;2023-04-15T10:28:02;6.33;;;2.30;;
75450;SDS011;64029;48.244;9.188;2023-04-15T10:30:30;5.53;;;2.70;;
75450;SDS011;64029;48.244;9.188;2023-04-15T10:32:58;2.53;;;1.77;;
75450;SDS011;64029;48.244;9.188;2023-04-15T10:35:25;5.40;;;1.80;;
75450;SDS011;64029;48.244;9.188;2023-04-15T10:37:56;4.90;;;1.70;;
75450;SDS011;64029;48.244;9.188;2023-04-15T10:40:24;3.53;;;1.37;;
75450;SDS011;64029;48.244;9.188;2023-04-15T10:42:52;3.27;;;1.50;;
75450;SDS011;64029;48.244;9.188;2023-04-15T10:45:20;2.50;;;1.60;;
75450;SDS011;64029;48.244;9.188;2023-04-15T10:47:50;5.50;;;1.30;;
75450;SDS011;64029;48.244;9.188;2023-04-15T10:50:19;6.07;;;1.57;;
75450;SDS011;64029;48.244;9.188;2023-04-15T10:52:49;2.97;;;1.47;;
75450;SDS011;64029;48.244;9.188;2023-04-15T10:55:19;3.70;;;1.57;;
75450;SDS011;64029;48.244;9.188;2023-04-15T10:57:50;6.00;;;2.07;;
75450;SDS011;64029;48.244;9.188;2023-04-15T11:00:19;5.40;;;1.60;;
75450;SDS011;64029;48.244;9.188;2023-04-15T11:02:51;6.67;;;1.50;;
75450;SDS011;64029;48.244;9.188;2023-04-15T11:05:20;4.10;;;1.50;;
75450;SDS011;64029;48.244;9.188;2023-04-15T11:07:49;3.40;;;1.60;;
75450;SDS011;64029;48.244;9.188;2023-04-15T11:13:20;3.40;;;1.80;;
75450;SDS011;64029;48.244;9.188;2023-04-15T11:15:54;1.77;;;1.50;;
75450;SDS011;64029;48.244;9.188;2023-04-15T11:18:26;4.33;;;2.07;;
75450;SDS011;64029;48.244;9.188;2023-04-15T11:20:55;3.30;;;1.60;;
75450;SDS011;64029;48.244;9.188;2023-04-15T11:23:27;3.60;;;1.40;;
75450;SDS011;64029;48.244;9.188;2023-04-15T11:25:57;5.13;;;1.10;;
75450;SDS011;64029;48.244;9.188;2023-04-15T11:28:25;3.57;;;1.50;;
75450;SDS011;64029;48.244;9.188;2023-04-15T11:30:53;3.10;;;1.50;;
75450;SDS011;64029;48.244;9.188;2023-04-15T11:33:21;3.00;;;1.77;;
75450;SDS011;64029;48.244;9.188;2023-04-15T11:35:49;2.87;;;1.50;;
75450;SDS011;64029;48.244;9.188;2023-04-15T11:38:17;4.47;;;1.80;;
75450;SDS011;64029;48.244;9.188;2023-04-15T11:40:44;2.97;;;1.60;;
75450;SDS011;64029;48.244;9.188;2023-04-15T11:43:13;3.70;;;1.50;;
75450;SDS011;64029;48.244;9.188;2023-04-15T11:45:47;7.17;;;1.70;;
75450;SDS011;64029;48.244;9.188;2023-04-15T11:48:16;4.50;;;1.77;;
75450;SDS011;64029;48.244;9.188;2023-04-15T11:50:44;3.50;;;2.10;;
75450;SDS011;64029;48.244;9.188;2023-04-15T11:53:11;5.30;;;2.10;;
75450;SDS011;64029;48.244;9.188;2023-04-15T11:55:42;2.97;;;2.20;;
75450;SDS011;64029;48.244;9.188;2023-04-15T11:58:14;3.60;;;1.70;;
75450;SDS011;64029;48.244;9.188;2023-04-15T12:00:45;3.77;;;2.13;;
75450;SDS011;64029;48.244;9.188;2023-04-15T12:03:13;4.53;;;2.60;;
75450;SDS011;64029;48.244;9.188;2023-04-15T12:08:47;6.00;;;2.40;;
75450;SDS011;64029;48.244;9.188;2023-04-15T12:11:36;4.20;;;2.30;;
75450;SDS011;64029;48.244;9.188;2023-04-15T12:14:12;6.40;;;2.63;;
75450;SDS011;64029;48.244;9.188;2023-04-15T12:16:45;4.83;;;1.70;;
75450;SDS011;64029;48.244;9.188;2023-04-15T12:19:14;3.07;;;2.63;;
75450;SDS011;64029;48.244;9.188;2023-04-15T12:21:44;3.13;;;2.23;;
75450;SDS011;64029;48.244;9.188;2023-04-15T12:24:12;4.17;;;2.20;;
75450;SDS011;64029;48.244;9.188;2023-04-15T12:26:42;4.07;;;2.10;;
75450;SDS011;64029;48.244;9.188;2023-04-15T12:29:12;4.37;;;1.90;;
75450;SDS011;64029;48.244;9.188;2023-04-15T12:31:50;6.93;;;1.83;;
75450;SDS011;64029;48.244;9.188;2023-04-15T12:34:24;4.40;;;2.50;;
75450;SDS011;64029;48.244;9.188;2023-04-15T12:36:53;4.83;;;2.13;;
75450;SDS011;64029;48.244;9.188;2023-04-15T12:39:20;5.43;;;2.00;;
75450;SDS011;64029;48.244;9.188;2023-04-15T12:41:48;4.60;;;2.00;;
75450;SDS011;64029;48.244;9.188;2023-04-15T12:44:16;3.80;;;2.23;;
75450;SDS011;64029;48.244;9.188;2023-04-15T12:46:44;2.57;;;2.20;;
75450;SDS011;64029;48.244;9.188;2023-04-15T12:49:11;6.10;;;2.43;;
75450;SDS011;64029;48.244;9.188;2023-04-15T12:51:40;7.30;;;2.70;;
75450;SDS011;64029;48.244;9.188;2023-04-15T12:54:06;8.77;;;3.30;;
75450;SDS011;64029;48.244;9.188;2023-04-15T12:56:33;4.60;;;2.37;;
75450;SDS011;64029;48.244;9.188;2023-04-15T12:59:00;5.33;;;2.70;;
75450;SDS011;64029;48.244;9.188;2023-04-15T13:01:28;3.70;;;2.27;;
75450;SDS011;64029;48.244;9.188;2023-04-15T13:03:55;3.67;;;2.37;;
75450;SDS011;64029;48.244;9.188;2023-04-15T13:06:22;4.77;;;2.87;;
75450;SDS011;64029;48.244;9.188;2023-04-15T13:08:49;4.80;;;2.77;;
75450;SDS011;64029;48.244;9.188;2023-04-15T13:11:19;4.03;;;2.00;;
75450;SDS011;64029;48.244;9.188;2023-04-15T13:13:45;4.10;;;2.37;;
75450;SDS011;64029;48.244;9.188;2023-04-15T13:16:12;2.90;;;2.23;;
75450;SDS011;64029;48.244;9.188;2023-04-15T13:18:41;2.30;;;2.10;;
75450;SDS011;64029;48.244;9.188;2023-04-15T13:21:07;4.57;;;2.53;;
75450;SDS011;64029;48.244;9.188;2023-04-15T13:23:34;3.47;;;2.73;;
75450;SDS011;64029;48.244;9.188;2023-04-15T13:26:01;4.23;;;2.33;;
75450;SDS011;64029;48.244;9.188;2023-04-15T13:28:28;4.70;;;2.80;;
75450;SDS011;64029;48.244;9.188;2023-04-15T13:30:55;6.20;;;2.83;;
75450;SDS011;64029;48.244;9.188;2023-04-15T13:33:22;3.03;;;2.20;;
75450;SDS011;64029;48.244;9.188;2023-04-15T13:35:50;2.53;;;2.13;;
75450;SDS011;64029;48.244;9.188;2023-04-15T13:38:17;4.27;;;2.60;;
75450;SDS011;64029;48.244;9.188;2023-04-15T13:40:44;2.70;;;2.40;;
75450;SDS011;64029;48.244;9.188;2023-04-15T13:43:11;3.53;;;2.63;;
75450;SDS011;64029;48.244;9.188;2023-04-15T13:45:38;4.67;;;2.00;;
75450;SDS011;64029;48.244;9.188;2023-04-15T13:48:05;3.47;;;2.63;;
75450;SDS011;64029;48.244;9.188;2023-04-15T13:50:32;6.20;;;2.57;;
75450;SDS011;64029;48.244;9.188;2023-04-15T13:53:00;5.40;;;3.03;;
75450;SDS011;64029;48.244;9.188;2023-04-15T13:55:27;4.10;;;2.63;;
75450;SDS011;64029;48.244;9.188;2023-04-15T13:57:54;6.17;;;2.73;;
75450;SDS011;64029;48.244;9.188;2023-04-15T14:00:21;6.33;;;3.43;;
75450;SDS011;64029;48.244;9.188;2023-04-15T14:02:48;6.20;;;3.10;;
75450;SDS011;64029;48.244;9.188;2023-04-15T14:05:15;8.30;;;2.70;;
75450;SDS011;64029;48.244;9.188;2023-04-15T14:07:42;8.70;;;3.63;;
75450;SDS011;64029;48.244;9.188;2023-04-15T14:10:10;4.73;;;3.00;;
75450;SDS011;64029;48.244;9.188;2023-04-15T14:12:37;5.77;;;2.87;;
75450;SDS011;64029;48.244;9.188;2023-04-15T14:15:04;5.60;;;3.10;;
75450;SDS011;64029;48.244;9.188;2023-04-15T14:17:32;6.13;;;3.40;;
75450;SDS011;64029;48.244;9.188;2023-04-15T14:19:58;8.23;;;3.60;;
75450;SDS011;64029;48.244;9.188;2023-04-15T14:22:25;5.33;;;3.63;;
75450;SDS011;64029;48.244;9.188;2023-04-15T14:24:52;4.90;;;4.27;;
75450;SDS011;64029;48.244;9.188;2023-04-15T14:27:21;7.03;;;4.60;;
75450;SDS011;64029;48.244;9.188;2023-04-15T14:29:48;7.43;;;4.20;;
75450;SDS011;64029;48.244;9.188;2023-04-15T14:32:15;8.17;;;4.97;;
75450;SDS011;64029;48.244;9.188;2023-04-15T14:34:42;6.57;;;5.40;;
75450;SDS011;64029;48.244;9.188;2023-04-15T14:37:08;7.30;;;5.13;;
75450;SDS011;64029;48.244;9.188;2023-04-15T14:39:35;6.60;;;4.87;;
75450;SDS011;64029;48.244;9.188;2023-04-15T14:42:02;6.00;;;5.17;;
75450;SDS011;64029;48.244;9.188;2023-04-15T14:44:30;6.43;;;4.87;;
75450;SDS011;64029;48.244;9.188;2023-04-15T14:46:57;6.93;;;4.67;;
75450;SDS011;64029;48.244;9.188;2023-04-15T14:49:24;7.50;;;4.90;;
75450;SDS011;64029;48.244;9.188;2023-04-15T14:51:51;5.33;;;4.23;;
75450;SDS011;64029;48.244;9.188;2023-04-15T14:54:18;6.83;;;4.10;;
75450;SDS011;64029;48.244;9.188;2023-04-15T14:56:45;8.80;;;3.93;;